Data for 10/09/2007

Time Sea-Level Adjusted Pressure Absolute Pressure Temperature Relative Humidity Dew Point   
(mb) (inHg) (mb) (inHg) (C) (F) (%) (C) (F)
00:05 1023 30.21 852 25.16 7.5 45.5 63 0.9 33.6
00:10 1023 30.21 852 25.16 7.8 46 63 1.1 34
00:15 1023 30.21 852 25.16 7.8 46 61 0.8 33.5
00:20 1023 30.21 852 25.16 7.9 46.2 61 0.9 33.6
00:25 1023 30.21 852 25.16 7.9 46.1 62 1 33.8
00:30 1023 30.21 852 25.16 7.8 46.1 63 1.3 34.4
00:35 1023 30.21 852 25.16 7.2 45 65 1.2 34.1
00:40 1023 30.21 852 25.16 7.1 44.7 65 1 33.8
00:45 1023 30.21 852 25.16 7.2 45 65 1 33.8
00:50 1023 30.21 852 25.16 7.2 45 64 0.9 33.7
00:55 1023 30.21 852 25.16 7.4 45.3 64 1.2 34.1
01:00 1023 30.21 852 25.16 7.3 45.1 65 1.2 34.2
01:05 1023 30.21 852 25.16 7.3 45.2 65 1.2 34.1
01:10 1023 30.21 852 25.16 7.4 45.2 65 1.3 34.3
01:15 1023 30.21 852 25.16 7.4 45.2 65 1.2 34.1
01:20 1023 30.21 852 25.16 7.4 45.4 65 1.3 34.3
01:25 1023 30.21 852 25.16 7.4 45.4 65 1.3 34.3
01:30 1023 30.21 852 25.16 7.3 45.1 66 1.3 34.3
01:35 1023 30.21 852 25.16 7.4 45.3 65 1.3 34.4
01:40 1023 30.21 852 25.16 7.5 45.5 65 1.3 34.3
01:45 1023 30.21 852 25.16 7.2 45 65 1.2 34.1
01:50 1023 30.21 852 25.16 7.1 44.8 65 0.9 33.7
01:55 1023 30.21 852 25.16 7 44.7 66 1.1 33.9
02:00 1023 30.21 852 25.16 6.9 44.4 66 1 33.9
02:05 1023 30.21 852 25.16 6.8 44.2 66 0.9 33.5
02:10 1023 30.21 852 25.16 6.8 44.3 66 1 33.7
02:15 1023 30.21 852 25.16 7.2 44.9 65 1 33.8
02:20 1023 30.21 852 25.16 7.3 45.1 65 1.2 34.2
02:25 1023 30.21 852 25.16 7.3 45.1 65 1.2 34.2
02:30 1023 30.21 852 25.16 7 44.6 66 1.2 34.1
02:35 1023 30.21 852 25.16 7.2 45 65 1.1 33.9
02:40 1023 30.21 852 25.16 7 44.6 65 1 33.7
02:45 1023 30.21 852 25.16 7 44.5 66 1 33.9
02:50 1023 30.21 852 25.16 7 44.7 65 1 33.7
02:55 1023 30.21 852 25.16 7.1 44.8 66 1.2 34.2
03:00 1023 30.21 852 25.16 7.1 44.7 65 1 33.9
03:05 1023 30.21 852 25.16 7.2 44.9 65 1 33.8
03:10 1023 30.21 852 25.16 6.9 44.3 66 1 33.8
03:15 1023 30.21 852 25.16 6.6 43.9 66 0.8 33.4
03:20 1023 30.21 852 25.16 6.8 44.2 65 0.7 33.3
03:25 1023 30.21 852 25.16 6.8 44.3 65 0.8 33.4
03:30 1023 30.21 852 25.16 6.6 43.9 67 0.9 33.6
03:35 1023 30.21 852 25.16 6.7 44.1 66 0.8 33.4
03:40 1023 30.21 852 25.16 7 44.7 65 1 33.7
03:45 1023 30.21 852 25.16 7.1 44.9 65 0.9 33.7
03:50 1023 30.21 852 25.16 7.3 45.1 64 0.9 33.6
03:55 1023 30.21 852 25.16 7.1 44.7 65 1 33.9
04:00 1023 30.21 852 25.16 6.8 44.3 67 1.1 34
04:05 1023 30.21 852 25.16 6.4 43.5 67 0.7 33.2
04:10 1023 30.21 852 25.16 6.6 43.8 64 0.4 32.6
04:15 1023 30.21 852 25.16 6.6 44 66 0.8 33.5
04:20 1023 30.21 852 25.16 6.3 43.4 67 0.8 33.4
04:25 1023 30.21 852 25.16 6.1 43 66 0.2 32.4
04:30 1023 30.21 852 25.16 6.2 43.2 64 -0.1 31.8
04:35 1023 30.21 852 25.16 6.6 43.9 64 0.2 32.4
04:40 1023 30.21 852 25.16 6.6 43.8 62 -0.1 31.8
04:45 1023 30.21 852 25.16 6.8 44.2 63 0.1 32.2
04:50 1023 30.21 852 25.16 7 44.6 64 0.7 33.2
04:55 1023 30.21 852 25.16 7 44.7 65 0.9 33.6
05:00 1023 30.21 852 25.16 6.8 44.2 66 1 33.7
05:05 1023 30.21 852 25.16 6.4 43.6 67 0.7 33.3
05:10 1023 30.21 852 25.16 6.2 43.2 66 0.4 32.8
05:15 1023 30.21 852 25.16 6.3 43.4 66 0.4 32.8
05:20 1023 30.21 852 25.16 6.4 43.5 67 0.8 33.4
05:25 1023 30.21 852 25.16 6.2 43.1 68 0.8 33.4
05:30 1023 30.21 852 25.16 6.1 43 68 0.7 33.2
05:35 1023 30.21 852 25.16 6.1 43 68 0.7 33.3
05:40 1023 30.21 852 25.16 6 42.9 68 0.6 33.1
05:45 1023 30.21 852 25.16 6 42.8 68 0.5 32.8
05:50 1023 30.21 852 25.16 5.9 42.6 68 0.5 32.9
05:55 1023 30.21 852 25.16 5.7 42.3 69 0.5 32.9
06:00 1023 30.21 852 25.16 5.6 42.1 68 0.3 32.5
06:05 1023 30.21 852 25.16 5.7 42.3 68 0.2 32.4
06:10 1023 30.21 852 25.16 5.9 42.6 65 -0.2 31.7
06:15 1023 30.21 852 25.16 6.1 42.9 64 -0.3 31.5
06:20 1023 30.21 852 25.16 6.1 42.9 66 0.2 32.3
06:25 1023 30.21 852 25.16 6 42.8 66 0.2 32.3
06:30 1023 30.21 852 25.16 6 42.8 67 0.2 32.4
06:35 1023 30.21 852 25.16 5.8 42.5 67 0.2 32.4
06:40 1023 30.21 852 25.16 5.7 42.3 68 0.2 32.4
06:45 1023 30.21 852 25.16 5.9 42.6 68 0.4 32.6
06:50 1023 30.21 852 25.16 5.9 42.7 68 0.4 32.8
06:55 1023 30.21 852 25.16 5.7 42.3 69 0.4 32.7
07:00 1023 30.21 853 25.19 5.5 41.9 69 0.3 32.6
07:05 1023 30.21 853 25.19 5.5 41.9 69 0.2 32.4
07:10 1023 30.21 853 25.19 5.6 42.1 69 0.4 32.7
07:15 1023 30.21 853 25.19 5.7 42.3 68 0.2 32.4
07:20 1023 30.21 853 25.19 5.8 42.5 67 0.3 32.5
07:25 1023 30.21 853 25.19 5.9 42.6 66 0 32
07:30 1023 30.21 853 25.19 6 42.7 66 0.2 32.4
07:35 1023 30.21 853 25.19 5.9 42.7 66 0 32.1
07:40 1024 30.24 853 25.19 5.9 42.6 66 -0 31.9
07:45 1024 30.24 853 25.19 6 42.9 66 0.3 32.5
07:50 1024 30.24 853 25.19 6 42.8 67 0.5 32.8
07:55 1024 30.24 853 25.19 6 42.8 68 0.6 33
08:00 1024 30.24 853 25.19 6.3 43.3 68 0.7 33.3
08:05 1024 30.24 853 25.19 6.5 43.6 67 0.9 33.6
08:10 1024 30.24 853 25.19 6 42.8 69 0.8 33.5
08:15 1024 30.24 853 25.19 6 42.7 69 0.7 33.3
08:20 1024 30.24 853 25.19 6.4 43.6 67 0.8 33.4
08:25 1024 30.24 853 25.19 7 44.7 65 1 33.7
08:30 1024 30.24 853 25.19 7.1 44.8 65 1.1 33.9
08:35 1024 30.24 853 25.19 7.2 45 65 1.1 34
08:40 1024 30.24 853 25.19 7.6 45.7 63 1.1 34
08:45 1024 30.24 853 25.19 8.1 46.5 62 1.3 34.3
08:50 1024 30.24 853 25.19 8.3 47 61 1.4 34.5
08:55 1024 30.24 853 25.19 8.7 47.6 60 1.4 34.6
09:00 1024 30.24 853 25.19 9 48.3 59 1.4 34.6
09:05 1024 30.24 853 25.19 9.5 49 58 1.6 34.9
09:10 1024 30.24 853 25.19 9.8 49.6 57 1.7 35
09:15 1024 30.24 853 25.19 10.1 50.2 55 1.6 34.9
09:20 1024 30.24 853 25.19 10.3 50.6 55 1.8 35.2
09:25 1024 30.24 853 25.19 10.6 51.2 55 2 35.5
09:30 1024 30.24 853 25.19 10.7 51.2 53 1.4 34.5
09:35 1024 30.24 853 25.19 10.1 50.1 54 1.3 34.3
09:40 1024 30.24 853 25.19 10 49.9 55 1.2 34.2
09:45 1024 30.24 853 25.19 10.5 50.9 53 1.3 34.3
09:50 1023 30.21 853 25.19 10.7 51.2 52 1.3 34.3
09:55 1023 30.21 853 25.19 11 51.9 51 1.3 34.4
10:00 1024 30.24 853 25.19 11.2 52.1 50 1.1 33.9
10:05 1023 30.21 853 25.19 11.7 53.1 49 1.6 34.8
10:10 1023 30.21 853 25.19 11.5 52.7 49 1.3 34.3
10:15 1024 30.24 853 25.19 12.3 54.1 46 1.1 34.1
10:20 1024 30.24 853 25.19 11.7 53 52 2.2 36
10:25 1024 30.24 853 25.19 10.8 51.4 53 1.5 34.8
10:30 1024 30.24 853 25.19 10.7 51.2 53 1.6 34.8
10:35 1024 30.24 853 25.19 11.2 52.2 51 1.4 34.4
10:40 1023 30.21 853 25.19 11.1 52 54 2.1 35.7
10:45 1023 30.21 853 25.19 10.9 51.7 52 1.4 34.6
10:50 1023 30.21 853 25.19 10.7 51.2 53 1.6 35
10:55 1023 30.21 853 25.19 11.5 52.7 50 1.4 34.6
11:00 1023 30.21 853 25.19 12.1 53.8 48 1.4 34.5
11:05 1023 30.21 853 25.19 12.2 53.9 48 1.4 34.6
11:10 1023 30.21 853 25.19 13 55.4 45 1.4 34.5
11:15 1023 30.21 853 25.19 13.3 56 46 2 35.6
11:20 1023 30.21 853 25.19 13.5 56.3 44 1.7 35
11:25 1023 30.21 853 25.19 13.7 56.7 45 1.9 35.5
11:30 1023 30.21 853 25.19 13.7 56.7 45 2.1 35.7
11:35 1023 30.21 853 25.19 14.3 57.7 43 1.9 35.5
11:40 1023 30.21 852 25.16 14.1 57.4 44 2.1 35.8
11:45 1023 30.21 852 25.16 14.5 58.2 43 2.2 35.9
11:50 1023 30.21 852 25.16 14.6 58.3 43 2.2 35.9
11:55 1023 30.21 852 25.16 14.7 58.5 42 2.1 35.7
12:00 1023 30.21 852 25.16 15 59 41 2.1 35.8
12:05 1023 30.21 852 25.16 15.2 59.3 41 2.3 36.1
12:10 1023 30.21 852 25.16 15.3 59.6 43 2.8 37.1
12:15 1023 30.21 852 25.16 15.8 60.5 40 2.4 36.3
12:20 1023 30.21 852 25.16 16.1 60.9 40 2.7 36.8
12:25 1023 30.21 852 25.16 16.2 61.2 40 2.6 36.7
12:30 1023 30.21 852 25.16 15.8 60.4 40 2.5 36.4
12:35 1023 30.21 852 25.16 16.5 61.8 39 2.6 36.7
12:40 1023 30.21 852 25.16 16.7 62.1 38 2.6 36.7
12:45 1023 30.21 852 25.16 16.3 61.3 40 2.8 37.1
12:50 1022 30.18 852 25.16 16.2 61.2 41 3.1 37.5
12:55 1022 30.18 852 25.16 16.4 61.6 39 2.5 36.5
13:00 1022 30.18 851 25.13 16.7 62 39 2.9 37.2
13:05 1022 30.18 851 25.13 16.8 62.2 39 2.8 37
13:10 1022 30.18 851 25.13 17.2 62.9 37 2.6 36.6
13:15 1022 30.18 851 25.13 16.8 62.3 39 3.1 37.6
13:20 1022 30.18 851 25.13 17 62.6 38 2.7 36.8
13:25 1022 30.18 851 25.13 17.6 63.8 38 3.4 38.1
13:30 1022 30.18 851 25.13 18.2 64.7 33 1.7 35
13:35 1022 30.18 851 25.13 18.8 65.8 33 2.2 36
13:40 1022 30.18 851 25.13 19.4 66.9 32 2.4 36.3
13:45 1022 30.18 851 25.13 19 66.1 33 2.6 36.6
13:50 1021 30.15 851 25.13 18.7 65.7 32 1.9 35.5
13:55 1021 30.15 851 25.13 18.8 65.8 34 2.6 36.7
14:00 1021 30.15 850 25.1 18.7 65.6 33 2.1 35.7
14:05 1021 30.15 850 25.1 18.6 65.4 33 2.1 35.8
14:10 1021 30.15 850 25.1 18.6 65.4 32 1.9 35.4
14:15 1021 30.15 850 25.1 18.9 66.1 33 2.4 36.2
14:20 1021 30.15 850 25.1 19.1 66.4 33 2.6 36.6
14:25 1021 30.15 850 25.1 19.3 66.7 32 2.4 36.4
14:30 1021 30.15 850 25.1 19.3 66.7 32 2.4 36.4
14:35 1021 30.15 850 25.1 19.2 66.5 32 2.4 36.3
14:40 1021 30.15 850 25.1 19.6 67.3 30 1.9 35.4
14:45 1020 30.12 850 25.1 19.8 67.6 30 2 35.5
14:50 1020 30.12 850 25.1 19.8 67.6 31 2.2 35.9
14:55 1020 30.12 849 25.07 19.7 67.4 31 2.3 36.2
15:00 1020 30.12 849 25.07 19.9 67.9 31 2.4 36.3
15:05 1020 30.12 849 25.07 20 67.9 31 2.6 36.7
15:10 1020 30.12 849 25.07 19.7 67.5 30 2 35.6
15:15 1020 30.12 849 25.07 19.8 67.6 30 2 35.6
15:20 1020 30.12 849 25.07 19.8 67.7 30 2.1 35.8
15:25 1020 30.12 849 25.07 19.6 67.2 31 2 35.7
15:30 1020 30.12 849 25.07 19.4 66.9 31 2.2 35.9
15:35 1020 30.12 849 25.07 19.1 66.4 33 2.6 36.6
15:40 1020 30.12 849 25.07 18.9 66 33 2.3 36.2
15:45 1020 30.12 849 25.07 18.7 65.7 33 2.3 36.2
15:50 1020 30.12 849 25.07 18.5 65.3 33 2.2 36
15:55 1020 30.12 849 25.07 18.5 65.3 33 2.1 35.8
16:00 1020 30.12 849 25.07 18.6 65.5 33 2 35.6
16:05 1020 30.12 849 25.07 18.6 65.5 33 2.1 35.9
16:10 1020 30.12 849 25.07 18.7 65.7 32 1.8 35.3
16:15 1020 30.12 849 25.07 18.5 65.3 32 1.8 35.2
16:20 1020 30.12 849 25.07 18.5 65.2 32 1.8 35.3
16:25 1020 30.12 849 25.07 18.8 65.9 31 1.6 34.9
16:30 1020 30.12 849 25.07 18.6 65.5 31 1.4 34.5
16:35 1019 30.09 849 25.07 18.3 65 31 1.2 34.2
16:40 1019 30.09 849 25.07 18.2 64.8 32 1.2 34.1
16:45 1019 30.09 849 25.07 18.3 64.9 32 1.3 34.4
16:50 1019 30.09 849 25.07 18.1 64.6 33 1.6 34.9
16:55 1020 30.12 849 25.07 17.8 64 34 1.7 35
17:00 1019 30.09 849 25.07 17.5 63.5 35 2 35.7
17:05 1019 30.09 849 25.07 17.3 63.1 36 2.2 35.9
17:10 1020 30.12 849 25.07 17.2 63 38 2.8 37.1
17:15 1020 30.12 849 25.07 17.1 62.7 39 3 37.4
17:20 1020 30.12 849 25.07 16.9 62.5 40 3.4 38.1
17:25 1020 30.12 849 25.07 16.7 62.1 41 3.6 38.5
17:30 1020 30.12 849 25.07 16.6 61.9 42 3.9 39
17:35 1020 30.12 849 25.07 16.4 61.5 43 3.8 38.9
17:40 1020 30.12 849 25.07 16.4 61.5 43 3.9 39.1
17:45 1020 30.12 849 25.07 16.2 61.2 44 4.1 39.3
17:50 1020 30.12 849 25.07 16.1 61 44 4 39.3
17:55 1020 30.12 849 25.07 16 60.7 45 4.1 39.4
18:00 1020 30.12 849 25.07 15.8 60.5 46 4.2 39.6
18:05 1020 30.12 849 25.07 15.6 60.2 46 4.3 39.7
18:10 1020 30.12 849 25.07 15.5 60 47 4.5 40.1
18:15 1020 30.12 849 25.07 15.4 59.7 48 4.5 40.1
18:20 1020 30.12 849 25.07 15.3 59.5 49 4.6 40.3
18:25 1020 30.12 849 25.07 15.2 59.3 49 4.6 40.3
18:30 1020 30.12 849 25.07 15.1 59.2 49 4.5 40.1
18:35 1020 30.12 849 25.07 15 59 49 4.6 40.3
18:40 1020 30.12 849 25.07 14.9 58.7 50 4.6 40.2
18:45 1020 30.12 849 25.07 14.7 58.4 50 4.6 40.2
18:50 1020 30.12 849 25.07 14.5 58.1 51 4.6 40.2
18:55 1020 30.12 849 25.07 14.4 57.9 52 4.7 40.4
19:00 1020 30.12 849 25.07 14.3 57.7 52 4.7 40.4
19:05 1020 30.12 849 25.07 14.1 57.4 53 4.7 40.4
19:10 1020 30.12 849 25.07 14.1 57.4 53 4.6 40.3
19:15 1020 30.12 849 25.07 14.1 57.3 53 4.7 40.4
19:20 1020 30.12 849 25.07 14 57.3 53 4.8 40.6
19:25 1020 30.12 849 25.07 13.9 57.1 54 4.8 40.6
19:30 1020 30.12 849 25.07 13.8 56.9 55 4.9 40.8
19:35 1020 30.12 849 25.07 13.7 56.6 55 4.8 40.7
19:40 1020 30.12 849 25.07 13.6 56.5 55 4.8 40.7
19:45 1020 30.12 849 25.07 13.6 56.6 55 4.9 40.9
19:50 1020 30.12 849 25.07 13.6 56.4 55 4.9 40.8
19:55 1020 30.12 849 25.07 13.5 56.3 56 4.9 40.8
20:00 1020 30.12 849 25.07 13.4 56.1 56 4.9 40.7
20:05 1020 30.12 849 25.07 13.3 55.9 56 4.9 40.7
20:10 1020 30.12 849 25.07 13.2 55.8 56 4.8 40.7
20:15 1020 30.12 849 25.07 13.3 55.9 56 4.7 40.4
20:20 1020 30.12 849 25.07 13.4 56.1 55 4.6 40.4
20:25 1020 30.12 849 25.07 13.5 56.2 55 4.7 40.5
20:30 1020 30.12 849 25.07 13.3 55.9 56 4.8 40.7
20:35 1020 30.12 849 25.07 13.2 55.7 56 4.8 40.6
20:40 1020 30.12 849 25.07 13.1 55.6 56 4.5 40.2
20:45 1019 30.09 849 25.07 13.3 55.9 55 4.5 40.1
20:50 1020 30.12 849 25.07 13.4 56 55 4.7 40.4
20:55 1020 30.12 849 25.07 13.3 55.9 55 4.6 40.2
21:00 1020 30.12 849 25.07 13.2 55.8 55 4.5 40.1
21:05 1019 30.09 849 25.07 13.2 55.7 55 4.5 40.2
21:10 1019 30.09 849 25.07 13.2 55.7 55 4.5 40.1
21:15 1019 30.09 848 25.04 13.2 55.7 55 4.4 39.9
21:20 1019 30.09 848 25.04 13.2 55.8 55 4.5 40
21:25 1019 30.09 849 25.07 13 55.5 56 4.7 40.4
21:30 1019 30.09 849 25.07 12.7 54.9 57 4.6 40.2
21:35 1019 30.09 849 25.07 12.7 54.8 57 4.5 40
21:40 1019 30.09 849 25.07 12.6 54.7 58 4.6 40.3
21:45 1020 30.12 849 25.07 12.4 54.3 58 4.5 40.1
21:50 1020 30.12 849 25.07 12.3 54.1 59 4.5 40.1
21:55 1019 30.09 849 25.07 12.3 54.1 59 4.5 40.1
22:00 1019 30.09 849 25.07 12.3 54.1 58 4.4 39.9
22:05 1019 30.09 848 25.04 12.3 54.2 58 4.5 40
22:10 1019 30.09 848 25.04 12.3 54.2 59 4.6 40.2
22:15 1019 30.09 848 25.04 12.2 53.9 59 4.5 40.2
22:20 1019 30.09 848 25.04 12.2 53.9 59 4.4 40
22:25 1019 30.09 848 25.04 12.2 53.9 59 4.4 40
22:30 1019 30.09 848 25.04 12.2 53.9 59 4.4 40
22:35 1019 30.09 848 25.04 12.1 53.8 59 4.5 40.1
22:40 1019 30.09 848 25.04 12.1 53.8 59 4.5 40
22:45 1019 30.09 848 25.04 12.1 53.8 59 4.4 39.9
22:50 1019 30.09 848 25.04 12.2 54 59 4.5 40.1
22:55 1019 30.09 848 25.04 12.1 53.8 60 4.6 40.2
23:00 1019 30.09 848 25.04 11.9 53.4 61 4.6 40.3
23:05 1019 30.09 848 25.04 11.7 53.1 61 4.5 40.2
23:10 1019 30.09 848 25.04 11.6 52.9 61 4.5 40.1
23:15 1019 30.09 848 25.04 11.6 52.8 62 4.5 40
23:20 1019 30.09 848 25.04 11.6 52.9 61 4.4 40
23:25 1019 30.09 848 25.04 11.7 53 61 4.4 39.9
23:30 1019 30.09 848 25.04 11.8 53.2 60 4.3 39.7
23:35 1019 30.09 848 25.04 11.9 53.4 61 4.6 40.2
23:40 1018 30.06 848 25.04 11.6 52.9 62 4.5 40.2
23:45 1018 30.06 848 25.04 11.6 52.8 61 4.4 39.9
23:50 1018 30.06 848 25.04 11.6 52.8 61 4.4 39.9
23:55 1018 30.06 848 25.04 11.6 52.8 61 4.4 39.8
24:00 1018 30.06 848 25.04 11.6 52.8 61 4.4 40